createdAt,value
2024-01-16T00:02:15.361Z,97523.19
2024-01-16T00:04:42.455Z,97530.06
2024-01-16T00:07:09.750Z,97533.47
2024-01-16T00:09:37.126Z,97535.97
2024-01-16T00:12:05.284Z,97541.00
2024-01-16T00:14:36.588Z,97535.91
2024-01-16T00:17:04.583Z,97540.19
2024-01-16T00:19:31.755Z,97539.38
2024-01-16T00:21:59.112Z,97540.16
2024-01-16T00:24:26.233Z,97541.81
2024-01-16T00:26:53.405Z,97534.16
2024-01-16T00:29:20.590Z,97540.16
2024-01-16T00:31:48.150Z,97544.41
2024-01-16T00:34:15.317Z,97534.25
2024-01-16T00:36:42.345Z,97535.03
2024-01-16T00:39:09.496Z,97541.75
2024-01-16T00:41:36.541Z,97539.19
2024-01-16T00:44:04.392Z,97534.16
2024-01-16T00:46:31.533Z,97546.00
2024-01-16T00:48:58.806Z,97544.25
2024-01-16T00:51:26.761Z,97547.59
2024-01-16T00:53:53.941Z,97537.41
2024-01-16T00:56:20.929Z,97528.16
2024-01-16T00:58:48.006Z,97519.72
2024-01-16T01:01:15.141Z,97529.97
2024-01-16T01:03:42.475Z,97523.22
2024-01-16T01:06:09.982Z,97531.63
2024-01-16T01:08:37.176Z,97527.31
2024-01-16T01:11:04.603Z,97524.94
2024-01-16T01:13:31.839Z,97533.34
2024-01-16T01:15:59.032Z,97546.84
2024-01-16T01:18:26.233Z,97538.41
2024-01-16T01:20:53.400Z,97533.31
2024-01-16T01:23:20.856Z,97535.00
2024-01-16T01:25:47.852Z,97527.31
2024-01-16T01:28:15.152Z,97535.97
2024-01-16T01:30:42.492Z,97530.00
2024-01-16T01:33:09.880Z,97524.88
2024-01-16T01:35:37.434Z,97529.97
2024-01-16T01:38:05.001Z,97529.13
2024-01-16T01:40:32.301Z,97525.72
2024-01-16T01:42:59.441Z,97521.44
2024-01-16T01:45:26.496Z,97527.38
2024-01-16T01:47:53.724Z,97519.88
2024-01-16T01:50:21.008Z,97519.88
2024-01-16T01:52:48.174Z,97523.13
2024-01-16T01:55:15.654Z,97526.44
2024-01-16T01:57:44.368Z,97520.50
2024-01-16T02:00:12.466Z,97521.31
2024-01-16T02:02:43.264Z,97521.28
2024-01-16T02:05:11.551Z,97513.66
2024-01-16T02:07:39.754Z,97510.31
2024-01-16T02:10:07.647Z,97520.53
2024-01-16T02:12:34.908Z,97507.03
2024-01-16T02:15:02.055Z,97507.97
2024-01-16T02:17:32.080Z,97514.69
2024-01-16T02:20:19.078Z,97518.09
2024-01-16T02:22:49.766Z,97518.88
2024-01-16T02:25:17.144Z,97518.00
2024-01-16T02:27:45.229Z,97527.31
2024-01-16T02:30:13.016Z,97521.31
2024-01-16T02:32:40.536Z,97508.59
2024-01-16T02:35:08.101Z,97515.31
2024-01-16T02:37:35.139Z,97518.78
2024-01-16T02:40:07.417Z,97526.41
2024-01-16T02:42:34.842Z,97529.75
2024-01-16T02:45:02.368Z,97523.03
2024-01-16T02:47:31.290Z,97531.53
2024-01-16T02:50:00.181Z,97529.75
2024-01-16T02:52:27.467Z,97536.50
2024-01-16T02:54:54.729Z,97520.34
2024-01-16T02:57:21.635Z,97537.31
2024-01-16T02:59:48.996Z,97537.25
2024-01-16T03:02:16.039Z,97527.06
2024-01-16T03:04:43.137Z,97520.22
2024-01-16T03:07:10.350Z,97524.47
2024-01-16T03:09:37.878Z,97523.66
2024-01-16T03:12:05.307Z,97520.34
2024-01-16T03:14:35.565Z,97522.88
2024-01-16T03:17:03.542Z,97522.81
2024-01-16T03:19:31.141Z,97516.91
2024-01-16T03:21:58.830Z,97519.34
2024-01-16T03:24:27.499Z,97516.88
2024-01-16T03:26:55.005Z,97509.22
2024-01-16T03:29:22.722Z,97517.59
2024-01-16T03:31:49.858Z,97532.81
2024-01-16T03:34:17.015Z,97529.38
2024-01-16T03:36:44.033Z,97526.91
2024-01-16T03:39:11.377Z,97531.09
2024-01-16T03:41:38.583Z,97538.63
2024-01-16T03:44:05.844Z,97537.72
2024-01-16T03:46:32.983Z,97531.00
2024-01-16T03:49:00.194Z,97532.69
2024-01-16T03:51:27.269Z,97531.91
2024-01-16T03:53:54.351Z,97524.31
2024-01-16T03:56:21.423Z,97519.31
2024-01-16T03:58:48.641Z,97514.19
2024-01-16T04:01:15.867Z,97522.75
2024-01-16T04:03:43.055Z,97522.03
2024-01-16T04:06:19.993Z,97510.94
2024-01-16T04:08:47.391Z,97520.94
2024-01-16T04:11:15.077Z,97520.06
2024-01-16T04:13:42.655Z,97522.44
2024-01-16T04:16:09.647Z,97530.88
2024-01-16T04:18:41.110Z,97531.75
2024-01-16T04:21:08.415Z,97525.88
2024-01-16T04:23:35.567Z,97519.97
2024-01-16T04:26:02.634Z,97525.97
2024-01-16T04:28:29.833Z,97522.56
2024-01-16T04:30:56.982Z,97526.00
2024-01-16T04:33:24.418Z,97514.16
2024-01-16T04:35:51.675Z,97528.50
2024-01-16T04:38:18.957Z,97527.66
2024-01-16T04:40:46.032Z,97530.97
2024-01-16T04:43:13.052Z,97531.03
2024-01-16T04:45:40.327Z,97536.81
2024-01-16T04:48:08.048Z,97540.28
2024-01-16T04:50:36.105Z,97540.34
2024-01-16T04:53:03.611Z,97536.94
2024-01-16T04:55:30.918Z,97534.41
2024-01-16T04:57:58.704Z,97529.34
2024-01-16T05:00:25.798Z,97530.22
2024-01-16T05:02:53.041Z,97521.88
2024-01-16T05:05:20.355Z,97534.00
2024-01-16T05:07:48.375Z,97538.91
2024-01-16T05:10:15.755Z,97539.59
2024-01-16T05:12:43.316Z,97544.66
2024-01-16T05:15:12.559Z,97537.06
2024-01-16T05:17:39.939Z,97542.00
2024-01-16T05:20:07.878Z,97550.38
2024-01-16T05:22:34.918Z,97557.94
2024-01-16T05:25:02.973Z,97556.28
2024-01-16T05:27:31.073Z,97564.88
2024-01-16T05:29:58.289Z,97567.41
2024-01-16T05:32:26.190Z,97565.59
2024-01-16T05:34:53.459Z,97563.75
2024-01-16T05:37:20.723Z,97558.69
2024-01-16T05:39:47.840Z,97557.94
2024-01-16T05:42:15.668Z,97559.75
2024-01-16T05:44:42.927Z,97551.31
2024-01-16T05:47:10.022Z,97547.00
2024-01-16T05:49:37.232Z,97546.94
2024-01-16T05:52:05.077Z,97549.44
2024-01-16T05:54:32.182Z,97544.31
2024-01-16T05:56:59.200Z,97541.72
2024-01-16T05:59:26.786Z,97540.88
2024-01-16T06:01:53.952Z,97542.56
2024-01-16T06:04:21.143Z,97530.72
2024-01-16T06:06:49.235Z,97535.06
2024-01-16T06:09:16.873Z,97538.66
2024-01-16T06:11:44.037Z,97535.56
2024-01-16T06:14:13.606Z,97532.38
2024-01-16T06:16:40.774Z,97528.00
2024-01-16T06:19:09.606Z,97527.00
2024-01-16T06:21:36.946Z,97531.97
2024-01-16T06:24:04.136Z,97538.66
2024-01-16T06:26:32.765Z,97534.41
2024-01-16T06:28:59.882Z,97531.84
2024-01-16T06:31:27.553Z,97528.44
2024-01-16T06:33:54.921Z,97542.00
2024-01-16T06:36:22.091Z,97547.88
2024-01-16T06:38:49.299Z,97534.34
2024-01-16T06:41:16.626Z,97532.69
2024-01-16T06:43:44.041Z,97548.06
2024-01-16T06:46:11.429Z,97540.63
2024-01-16T06:48:39.609Z,97532.22
2024-01-16T06:51:07.075Z,97529.03
2024-01-16T06:53:34.185Z,97527.53
2024-01-16T06:56:01.274Z,97531.66
2024-01-16T06:58:28.350Z,97518.13
2024-01-16T07:00:55.532Z,97524.00
2024-01-16T07:03:22.815Z,97535.75
2024-01-16T07:05:50.401Z,97530.63
2024-01-16T07:08:17.679Z,97527.47
2024-01-16T07:10:44.939Z,97528.28
2024-01-16T07:13:13.404Z,97530.78
2024-01-16T07:15:40.405Z,97533.22
2024-01-16T07:18:08.025Z,97532.34
2024-01-16T07:20:35.325Z,97520.69
2024-01-16T07:23:02.620Z,97520.75
2024-01-16T07:25:29.638Z,97523.28
2024-01-16T07:27:56.562Z,97530.94
2024-01-16T07:30:23.603Z,97519.97
2024-01-16T07:32:51.892Z,97514.00
2024-01-16T07:35:19.112Z,97513.97
2024-01-16T07:37:46.331Z,97518.25
2024-01-16T07:40:13.805Z,97513.19
2024-01-16T07:42:40.988Z,97517.53
2024-01-16T07:45:08.351Z,97509.97
2024-01-16T07:47:36.616Z,97509.13
2024-01-16T07:50:06.030Z,97507.53
2024-01-16T07:52:34.817Z,97501.63
2024-01-16T07:55:02.112Z,97499.16
2024-01-16T07:57:30.828Z,97497.47
2024-01-16T07:59:58.469Z,97495.72
2024-01-16T08:02:33.680Z,97497.41
2024-01-16T08:05:00.964Z,97495.75
2024-01-16T08:07:28.655Z,97487.44
2024-01-16T08:09:55.915Z,97486.66
2024-01-16T08:12:23.219Z,97483.28
2024-01-16T08:14:50.730Z,97487.56
2024-01-16T08:17:18.572Z,97485.03
2024-01-16T08:19:45.616Z,97487.75
2024-01-16T08:22:12.724Z,97489.59
2024-01-16T08:24:39.958Z,97483.56
2024-01-16T08:27:06.978Z,97475.19
2024-01-16T08:29:34.425Z,97472.66
2024-01-16T08:32:01.597Z,97464.19
2024-01-16T08:34:28.963Z,97468.31
2024-01-16T08:36:58.356Z,97466.63
2024-01-16T08:39:25.899Z,97469.19
2024-01-16T08:41:53.082Z,97468.22
2024-01-16T08:44:20.128Z,97473.38
2024-01-16T08:46:47.568Z,97479.34
2024-01-16T08:49:17.907Z,97479.34
2024-01-16T08:51:47.067Z,97482.63
2024-01-16T08:54:14.073Z,97485.16
2024-01-16T08:56:41.338Z,97480.13
2024-01-16T08:59:09.565Z,97481.19
2024-01-16T09:01:39.427Z,97474.41
2024-01-16T09:04:06.550Z,97476.88
2024-01-16T09:06:33.715Z,97468.47
2024-01-16T09:09:01.224Z,97457.47
2024-01-16T09:11:28.455Z,97462.50
2024-01-16T09:13:55.563Z,97457.44
2024-01-16T09:16:22.573Z,97457.44
2024-01-16T09:18:49.835Z,97454.13
2024-01-16T09:21:17.357Z,97448.22
2024-01-16T09:23:45.425Z,97448.31
2024-01-16T09:26:12.651Z,97456.78
2024-01-16T09:28:40.437Z,97456.75
2024-01-16T09:31:08.106Z,97454.16
2024-01-16T09:33:36.177Z,97450.84
2024-01-16T09:36:03.706Z,97448.28
2024-01-16T09:38:32.331Z,97439.94
2024-01-16T09:41:00.652Z,97439.13
2024-01-16T09:43:28.504Z,97437.47
2024-01-16T09:46:00.192Z,97426.50
2024-01-16T09:48:33.523Z,97417.19
2024-01-16T09:51:00.969Z,97416.41
2024-01-16T09:53:29.498Z,97409.63
2024-01-16T09:55:59.271Z,97413.81
2024-01-16T09:58:26.994Z,97407.81
2024-01-16T10:00:54.665Z,97406.97
2024-01-16T10:03:22.193Z,97414.63
2024-01-16T10:05:49.990Z,97417.19
2024-01-16T10:08:17.538Z,97404.44
2024-01-16T10:10:49.027Z,97399.31
2024-01-16T10:13:18.607Z,97412.09
2024-01-16T10:15:45.909Z,97412.09
2024-01-16T10:18:27.987Z,97416.41
2024-01-16T10:20:55.772Z,97413.03
2024-01-16T10:23:31.011Z,97418.13
2024-01-16T10:26:16.868Z,97413.06
2024-01-16T10:28:44.593Z,97412.25
2024-01-16T10:31:13.448Z,97414.81
2024-01-16T10:33:41.479Z,97401.22
2024-01-16T10:36:18.078Z,97404.50
2024-01-16T10:38:46.126Z,97406.22
2024-01-16T10:41:15.227Z,97399.44
2024-01-16T10:43:43.487Z,97397.78
2024-01-16T10:46:13.464Z,97398.66
2024-01-16T10:48:43.407Z,97391.03
2024-01-16T10:51:13.458Z,97389.28
2024-01-16T10:53:44.166Z,97391.78
2024-01-16T10:56:16.970Z,97388.38
2024-01-16T10:58:44.537Z,97383.28
2024-01-16T11:01:15.492Z,97382.41
2024-01-16T11:03:50.829Z,97374.72
2024-01-16T11:06:19.733Z,97372.25
2024-01-16T11:08:48.651Z,97369.78
2024-01-16T11:11:17.178Z,97372.34
2024-01-16T11:13:45.778Z,97370.63
2024-01-16T11:16:13.443Z,97363.03
2024-01-16T11:18:41.183Z,97358.03
2024-01-16T11:21:16.604Z,97358.06
2024-01-16T11:23:47.205Z,97358.06
2024-01-16T11:26:35.127Z,97352.09
2024-01-16T11:29:28.352Z,97349.50
2024-01-16T11:32:09.157Z,97345.25
2024-01-16T11:34:45.258Z,97351.16
2024-01-16T11:37:15.302Z,97337.59
2024-01-16T11:39:42.520Z,97335.94
2024-01-16T11:42:10.961Z,97326.56
2024-01-16T11:44:55.618Z,97328.25
2024-01-16T11:47:24.745Z,97323.16
2024-01-16T11:49:53.295Z,97317.22
2024-01-16T11:52:45.574Z,97316.38
2024-01-16T11:55:29.982Z,97316.38
2024-01-16T11:58:22.181Z,97316.34
2024-01-16T12:00:54.390Z,97314.59
2024-01-16T12:03:31.531Z,97316.28
2024-01-16T12:06:04.675Z,97309.50
2024-01-16T12:08:32.228Z,97315.53
2024-01-16T12:11:00.865Z,97312.22
2024-01-16T12:13:28.166Z,97302.09
2024-01-16T12:16:07.773Z,97298.69
2024-01-16T12:18:42.373Z,97290.97
2024-01-16T12:21:13.417Z,97290.97
2024-01-16T12:23:46.797Z,97281.66
2024-01-16T12:26:26.006Z,97284.19
2024-01-16T12:28:57.697Z,97280.81
2024-01-16T12:31:28.474Z,97268.09
2024-01-16T12:34:07.106Z,97274.00
2024-01-16T12:36:35.041Z,97270.56
2024-01-16T12:39:02.670Z,97271.44
2024-01-16T12:41:39.758Z,97267.16
2024-01-16T12:44:15.750Z,97256.09
2024-01-16T12:46:46.783Z,97254.56
2024-01-16T12:49:14.279Z,97258.84
2024-01-16T12:51:41.413Z,97256.28
2024-01-16T12:54:16.559Z,97245.22
2024-01-16T12:56:43.893Z,97252.00
2024-01-16T12:59:14.933Z,97250.25
2024-01-16T13:01:45.403Z,97252.81
2024-01-16T13:04:14.782Z,97243.47
2024-01-16T13:06:44.951Z,97242.63
2024-01-16T13:09:17.667Z,97238.44
2024-01-16T13:11:51.118Z,97249.53
2024-01-16T13:14:19.182Z,97243.66
2024-01-16T13:16:46.256Z,97243.72
2024-01-16T13:19:13.484Z,97231.13
2024-01-16T13:21:40.561Z,97232.81
2024-01-16T13:24:08.329Z,97230.25
2024-01-16T13:26:36.132Z,97231.94
2024-01-16T13:29:03.412Z,97231.94
2024-01-16T13:31:31.096Z,97232.75
2024-01-16T13:33:58.612Z,97225.97
2024-01-16T13:36:46.603Z,97223.38
2024-01-16T13:39:14.530Z,97221.72
2024-01-16T13:41:42.507Z,97231.00
2024-01-16T13:44:09.642Z,97212.25
2024-01-16T13:46:50.012Z,97207.97
2024-01-16T13:49:25.015Z,97210.53
2024-01-16T13:51:52.652Z,97206.31
2024-01-16T13:54:19.628Z,97204.59
2024-01-16T13:56:59.433Z,97196.91
2024-01-16T13:59:33.406Z,97197.75
2024-01-16T14:02:00.747Z,97191.81
2024-01-16T14:04:28.036Z,97194.34
2024-01-16T14:07:09.914Z,97207.97
2024-01-16T14:09:42.858Z,97209.72
2024-01-16T14:12:10.717Z,97202.09
2024-01-16T14:14:39.767Z,97203.06
2024-01-16T14:17:07.361Z,97201.47
2024-01-16T14:19:38.949Z,97199.81
2024-01-16T14:22:06.513Z,97191.28
2024-01-16T14:24:33.632Z,97192.09
2024-01-16T14:27:01.232Z,97188.00
2024-01-16T14:29:28.598Z,97188.84
2024-01-16T14:31:57.609Z,97188.88
2024-01-16T14:34:25.422Z,97187.16
2024-01-16T14:36:52.593Z,97189.69
2024-01-16T14:39:26.984Z,97187.16
2024-01-16T14:41:55.709Z,97174.44
2024-01-16T14:44:23.208Z,97171.88
2024-01-16T14:46:53.057Z,97176.06
2024-01-16T14:49:22.822Z,97185.34
2024-01-16T14:51:52.087Z,97179.41
2024-01-16T14:54:19.489Z,97181.09
2024-01-16T14:56:47.239Z,97172.63
2024-01-16T14:59:16.386Z,97172.66
2024-01-16T15:01:45.485Z,97167.50
2024-01-16T15:04:13.583Z,97165.75
2024-01-16T15:06:41.218Z,97164.88
2024-01-16T15:09:11.910Z,97160.63
2024-01-16T15:11:39.876Z,97164.84
2024-01-16T15:14:07.328Z,97162.28
2024-01-16T15:16:34.541Z,97156.38
2024-01-16T15:19:01.900Z,97160.63
2024-01-16T15:21:29.187Z,97158.13
2024-01-16T15:23:56.572Z,97162.34
2024-01-16T15:26:23.875Z,97159.88
2024-01-16T15:28:51.129Z,97152.19
2024-01-16T15:31:19.256Z,97155.59
2024-01-16T15:33:46.943Z,97153.91
2024-01-16T15:36:14.283Z,97150.56
2024-01-16T15:38:43.828Z,97158.25
2024-01-16T15:41:10.937Z,97154.84
2024-01-16T15:43:38.377Z,97150.69
2024-01-16T15:46:05.547Z,97155.81
2024-01-16T15:48:35.703Z,97145.66
2024-01-16T15:51:05.192Z,97150.75
2024-01-16T15:53:36.829Z,97149.06
2024-01-16T15:56:07.616Z,97157.59
2024-01-16T15:58:36.395Z,97141.47
2024-01-16T16:01:03.814Z,97155.88
2024-01-16T16:03:36.355Z,97149.09
2024-01-16T16:06:04.165Z,97158.38
2024-01-16T16:08:31.433Z,97154.91
2024-01-16T16:10:58.682Z,97148.16
2024-01-16T16:13:30.139Z,97153.28
2024-01-16T16:15:57.860Z,97150.78
2024-01-16T16:18:25.233Z,97143.97
2024-01-16T16:20:52.528Z,97144.84
2024-01-16T16:23:20.955Z,97144.84
2024-01-16T16:25:48.528Z,97144.84
2024-01-16T16:28:15.665Z,97144.84
2024-01-16T16:30:44.595Z,97140.59
2024-01-16T16:33:12.711Z,97144.00
2024-01-16T16:35:40.238Z,97144.88
2024-01-16T16:38:07.463Z,97144.88
2024-01-16T16:40:34.551Z,97138.94
2024-01-16T16:43:01.745Z,97140.63
2024-01-16T16:45:28.985Z,97142.34
2024-01-16T16:47:56.652Z,97151.66
2024-01-16T16:50:24.801Z,97143.16
2024-01-16T16:52:52.218Z,97144.88
2024-01-16T16:55:19.392Z,97146.56
2024-01-16T16:57:46.540Z,97143.19
2024-01-16T17:00:15.191Z,97148.28
2024-01-16T17:02:42.574Z,97147.41
2024-01-16T17:05:10.794Z,97144.88
2024-01-16T17:07:38.335Z,97145.72
2024-01-16T17:10:05.915Z,97144.03
2024-01-16T17:12:33.621Z,97142.34
2024-01-16T17:15:00.798Z,97137.25
2024-01-16T17:17:30.343Z,97143.19
2024-01-16T17:19:57.893Z,97142.34
2024-01-16T17:22:25.151Z,97133.00
2024-01-16T17:24:52.653Z,97133.81
2024-01-16T17:27:19.729Z,97127.88
2024-01-16T17:29:46.930Z,97135.50
2024-01-16T17:32:14.144Z,97137.19
2024-01-16T17:34:41.381Z,97141.47
2024-01-16T17:37:08.898Z,97138.91
2024-01-16T17:39:39.619Z,97139.75
2024-01-16T17:42:06.800Z,97136.34
2024-01-16T17:44:39.135Z,97135.50
2024-01-16T17:47:06.280Z,97138.06
2024-01-16T17:49:34.724Z,97136.34
2024-01-16T17:52:04.922Z,97135.47
2024-01-16T17:54:32.240Z,97137.97
2024-01-16T17:56:59.458Z,97137.13
2024-01-16T17:59:32.273Z,97138.84
2024-01-16T18:01:59.462Z,97137.16
2024-01-16T18:04:26.623Z,97147.31
2024-01-16T18:06:53.819Z,97141.34
2024-01-16T18:09:22.035Z,97144.81
2024-01-16T18:11:56.590Z,97143.97
2024-01-16T18:14:25.495Z,97144.81
2024-01-16T18:16:53.581Z,97156.69
2024-01-16T18:19:23.141Z,97160.88
2024-01-16T18:21:51.336Z,97157.50
2024-01-16T18:24:18.565Z,97158.34
2024-01-16T18:26:46.720Z,97152.44
2024-01-16T18:29:14.535Z,97161.81
2024-01-16T18:31:41.515Z,97149.94
2024-01-16T18:34:15.293Z,97160.94
2024-01-16T18:36:49.827Z,97163.47
2024-01-16T18:39:19.209Z,97153.31
2024-01-16T18:41:50.191Z,97159.22
2024-01-16T18:44:20.975Z,97163.47
2024-01-16T18:46:48.250Z,97160.94
2024-01-16T18:49:16.849Z,97160.06
2024-01-16T18:51:44.285Z,97166.88
2024-01-16T18:54:11.597Z,97169.44
2024-01-16T18:56:39.589Z,97169.44
2024-01-16T18:59:07.892Z,97169.44
2024-01-16T19:01:36.110Z,97177.94
2024-01-16T19:04:05.266Z,97189.81
2024-01-16T19:06:32.598Z,97178.78
2024-01-16T19:09:01.058Z,97190.66
2024-01-16T19:11:28.604Z,97184.72
2024-01-16T19:13:55.852Z,97193.19
2024-01-16T19:16:24.179Z,97190.63
2024-01-16T19:18:51.415Z,97192.31
2024-01-16T19:21:18.824Z,97195.69
2024-01-16T19:23:45.892Z,97198.22
2024-01-16T19:26:13.543Z,97201.63
2024-01-16T19:28:40.538Z,97205.09
2024-01-16T19:31:07.664Z,97200.88
2024-01-16T19:33:35.208Z,97210.22
2024-01-16T19:36:04.588Z,97214.41
2024-01-16T19:38:32.395Z,97212.69
2024-01-16T19:40:59.609Z,97211.00
2024-01-16T19:43:26.733Z,97223.69
2024-01-16T19:45:54.724Z,97222.00
2024-01-16T19:48:23.751Z,97227.03
2024-01-16T19:50:51.169Z,97241.47
2024-01-16T19:53:18.428Z,97236.38
2024-01-16T19:55:45.842Z,97236.38
2024-01-16T19:58:13.767Z,97248.22
2024-01-16T20:00:41.148Z,97248.13
2024-01-16T20:03:09.052Z,97247.22
2024-01-16T20:05:43.326Z,97249.78
2024-01-16T20:08:12.126Z,97255.69
2024-01-16T20:10:40.286Z,97269.25
2024-01-16T20:13:08.257Z,97261.66
2024-01-16T20:15:35.495Z,97271.91
2024-01-16T20:18:04.305Z,97270.22
2024-01-16T20:20:31.805Z,97276.13
2024-01-16T20:22:59.467Z,97281.19
2024-01-16T20:25:26.808Z,97283.72
2024-01-16T20:27:55.119Z,97291.38
2024-01-16T20:30:22.497Z,97293.09
2024-01-16T20:32:52.876Z,97305.81
2024-01-16T20:35:23.790Z,97304.97
2024-01-16T20:37:51.513Z,97308.34
2024-01-16T20:40:18.630Z,97315.19
2024-01-16T20:42:46.032Z,97303.28
2024-01-16T20:45:13.318Z,97310.03
2024-01-16T20:47:41.545Z,97312.56
2024-01-16T20:50:10.904Z,97311.75
2024-01-16T20:52:38.483Z,97310.88
2024-01-16T20:55:08.103Z,97317.63
2024-01-16T20:57:36.474Z,97321.78
2024-01-16T21:00:16.275Z,97324.41
2024-01-16T21:02:43.947Z,97331.28
2024-01-16T21:05:11.917Z,97333.84
2024-01-16T21:07:39.538Z,97332.03
2024-01-16T21:10:10.177Z,97333.72
2024-01-16T21:12:37.418Z,97341.34
2024-01-16T21:15:04.916Z,97335.31
2024-01-16T21:17:32.283Z,97335.13
2024-01-16T21:19:59.412Z,97341.91
2024-01-16T21:22:33.412Z,97341.94
2024-01-16T21:25:09.485Z,97346.28
2024-01-16T21:27:38.446Z,97346.28
2024-01-16T21:30:06.961Z,97349.56
2024-01-16T21:32:34.104Z,97353.84
2024-01-16T21:35:01.330Z,97362.25
2024-01-16T21:37:28.628Z,97359.66
2024-01-16T21:39:55.778Z,97367.28
2024-01-16T21:42:23.026Z,97361.22
2024-01-16T21:44:52.831Z,97368.81
2024-01-16T21:47:25.548Z,97363.69
2024-01-16T21:49:52.948Z,97371.25
2024-01-16T21:52:21.858Z,97372.06
2024-01-16T21:54:49.936Z,97372.09
2024-01-16T21:57:17.110Z,97372.22
2024-01-16T21:59:44.187Z,97373.97
2024-01-16T22:02:13.931Z,97387.47
2024-01-16T22:04:41.031Z,97385.78
2024-01-16T22:07:08.164Z,97386.81
2024-01-16T22:09:36.119Z,97387.63
2024-01-16T22:12:03.628Z,97388.47
2024-01-16T22:14:31.828Z,97391.06
2024-01-16T22:16:59.015Z,97393.50
2024-01-16T22:19:26.103Z,97397.59
2024-01-16T22:21:53.292Z,97404.34
2024-01-16T22:24:20.408Z,97411.09
2024-01-16T22:26:47.511Z,97405.25
2024-01-16T22:29:14.724Z,97407.78
2024-01-16T22:31:43.113Z,97411.19
2024-01-16T22:34:10.405Z,97411.22
2024-01-16T22:36:41.564Z,97412.19
2024-01-16T22:39:16.686Z,97413.84
2024-01-16T22:41:47.911Z,97422.22
2024-01-16T22:44:15.655Z,97432.38
2024-01-16T22:46:43.147Z,97420.41
2024-01-16T22:49:11.730Z,97437.16
2024-01-16T22:51:38.976Z,97438.69
2024-01-16T22:54:06.702Z,97444.50
2024-01-16T22:56:33.988Z,97449.50
2024-01-16T22:59:03.994Z,97466.28
2024-01-16T23:01:32.252Z,97461.78
2024-01-16T23:03:59.788Z,97476.56
2024-01-16T23:06:30.498Z,97478.94
2024-01-16T23:08:58.986Z,97487.13
2024-01-16T23:11:26.397Z,97481.84
2024-01-16T23:13:54.530Z,97486.91
2024-01-16T23:16:22.665Z,97490.38
2024-01-16T23:18:49.856Z,97491.97
2024-01-16T23:21:20.338Z,97507.06
2024-01-16T23:23:49.477Z,97507.78
2024-01-16T23:26:16.983Z,97516.09
2024-01-16T23:28:44.695Z,97523.72
2024-01-16T23:31:13.309Z,97526.63
2024-01-16T23:33:42.567Z,97527.28
2024-01-16T23:36:10.878Z,97527.09
2024-01-16T23:38:40.277Z,97526.75
2024-01-16T23:41:10.668Z,97530.44
2024-01-16T23:43:38.571Z,97542.88
2024-01-16T23:46:08.856Z,97542.06
2024-01-16T23:48:36.110Z,97543.78
2024-01-16T23:51:03.920Z,97550.47
2024-01-16T23:53:31.129Z,97553.06
2024-01-16T23:55:58.462Z,97550.34
2024-01-16T23:58:28.426Z,97556.88
